Terminal Aerodrome Forecast
Issued by NWS

Home | Current Version | Previous Version | Text Only | Print | Product List | Glossary On
Versions: 1 2 3 4 5 6 7 8 9 10 11 12 13 14 15 16 17
000
FTUS46 KMTR 251847 AAA
TAFSTS
TAF AMD
KSTS 251847Z 2519/2618 18004KT 4SM BR BKN005
     FM251930 18006KT P6SM FEW010
     FM252100 18008KT P6SM SKC
     FM260400 VRB04KT P6SM SCT008
     FM260700 VRB03KT 6SM BR OVC005
     FM261000 00000KT 3SM BR OVC003=

USA.gov is the U.S. government's official web portal to all federal, state and local government web resources and services.